Time;durP1;ratioP1;P1;durP2;ratioP2;P2;SDS_P1;SDS_P2;PMS_P1;PMS_P2;Temp;Humidity;BMP_temperature;BMP_pressure;BME280_temperature;BME280_humidity;BME280_pressure;Samples;Min_cycle;Max_cycle;Signal;HPM_P1;HPM_P2
2023/04/26 00:00:29;;;;;;;23.53;10.73;;;6.10;99.90;;;;;;5074397;28;20478;-60
2023/04/26 00:02:55;;;;;;;17.17;8.23;;;6.10;99.90;;;;;;5074032;28;20479;-60
2023/04/26 00:05:24;;;;;;;31.77;13.73;;;6.20;99.90;;;;;;5073549;28;20985;-59
2023/04/26 00:07:51;;;;;;;19.77;10.23;;;6.30;99.90;;;;;;5046028;28;20478;-59
2023/04/26 00:10:18;;;;;;;26.63;11.20;;;6.40;99.90;;;;;;5068808;28;20490;-59
2023/04/26 00:12:45;;;;;;;19.50;8.60;;;6.30;99.60;;;;;;5074066;28;20506;-60
2023/04/26 00:15:11;;;;;;;15.40;8.43;;;6.40;99.50;;;;;;5073425;28;20489;-60
2023/04/26 00:17:38;;;;;;;17.50;8.10;;;6.30;99.40;;;;;;5073567;28;20838;-59
2023/04/26 00:20:08;;;;;;;35.10;13.80;;;6.30;99.40;;;;;;5071875;28;20834;-59
2023/04/26 00:22:36;;;;;;;25.30;9.87;;;6.30;99.40;;;;;;5051409;28;21029;-59
2023/04/26 00:25:03;;;;;;;31.37;9.70;;;6.20;99.60;;;;;;5056785;28;20475;-59
2023/04/26 00:27:30;;;;;;;24.10;11.93;;;6.20;99.50;;;;;;5070314;28;20479;-60
2023/04/26 00:29:57;;;;;;;24.27;11.00;;;6.20;99.20;;;;;;5073510;28;20485;-60
2023/04/26 00:32:24;;;;;;;32.60;13.60;;;6.30;99.20;;;;;;5073647;28;20469;-60
2023/04/26 00:34:51;;;;;;;19.40;10.00;;;6.30;99.00;;;;;;5074657;28;20535;-60
2023/04/26 00:37:17;;;;;;;38.17;15.37;;;6.20;98.60;;;;;;5070529;28;20486;-59
2023/04/26 00:39:45;;;;;;;27.73;12.23;;;6.00;98.00;;;;;;5071581;28;20479;-59
2023/04/26 00:42:12;;;;;;;29.23;12.20;;;5.70;98.40;;;;;;5073046;28;20486;-59
2023/04/26 00:44:39;;;;;;;20.10;9.43;;;5.60;98.70;;;;;;5073894;28;20819;-59
2023/04/26 00:47:06;;;;;;;30.10;10.57;;;5.60;98.70;;;;;;5073885;28;20561;-59
2023/04/26 00:49:33;;;;;;;23.53;11.17;;;5.60;98.50;;;;;;5072631;28;20695;-59
2023/04/26 00:51:59;;;;;;;23.23;11.50;;;5.60;98.50;;;;;;5072641;28;20993;-59
2023/04/26 00:54:26;;;;;;;35.50;12.30;;;5.50;98.80;;;;;;5075415;28;20955;-59
2023/04/26 00:56:55;;;;;;;23.23;10.87;;;5.50;98.80;;;;;;5071790;28;20474;-59
2023/04/26 00:59:21;;;;;;;35.47;12.67;;;3.00;97.80;;;;;;5052523;28;20896;-59
2023/04/26 01:01:48;;;;;;;20.60;8.47;;;5.60;99.00;;;;;;5052420;28;20514;-59
2023/04/26 01:04:16;;;;;;;24.63;12.87;;;5.60;98.90;;;;;;5053882;28;20558;-59
2023/04/26 01:06:44;;;;;;;17.63;10.43;;;5.50;99.10;;;;;;5055065;28;20490;-59
2023/04/26 01:09:13;;;;;;;22.10;9.17;;;5.50;99.40;;;;;;5040904;28;20487;-59
2023/04/26 01:11:42;;;;;;;15.50;9.23;;;5.60;99.20;;;;;;5055006;28;20471;-59
2023/04/26 01:14:10;;;;;;;17.37;9.13;;;5.60;99.10;;;;;;5052096;28;20478;-59
2023/04/26 01:16:37;;;;;;;20.40;8.47;;;5.60;98.80;;;;;;5052804;28;20487;-59
2023/04/26 01:19:08;;;;;;;13.37;8.80;;;5.60;98.60;;;;;;5044745;28;20486;-59
2023/04/26 01:21:35;;;;;;;16.50;8.30;;;5.40;98.10;;;;;;5056120;28;20488;-59
2023/04/26 01:24:03;;;;;;;20.80;10.73;;;5.40;98.60;;;;;;5038387;28;20869;-60
2023/04/26 01:26:30;;;;;;;16.33;8.80;;;5.30;98.50;;;;;;5050096;28;20482;-59
2023/04/26 01:28:57;;;;;;;23.10;9.50;;;5.00;98.70;;;;;;5050202;28;20562;-60
2023/04/26 01:31:24;;;;;;;23.37;12.03;;;5.00;99.10;;;;;;5046987;28;20860;-59
2023/04/26 01:33:51;;;;;;;17.00;9.10;;;5.00;99.10;;;;;;5048259;28;20482;-59
2023/04/26 01:36:17;;;;;;;29.87;13.83;;;5.10;98.90;;;;;;5050941;28;20840;-59
2023/04/26 01:38:44;;;;;;;14.53;7.70;;;5.10;98.80;;;;;;5053332;28;20491;-59
2023/04/26 01:41:12;;;;;;;15.73;9.50;;;5.10;98.80;;;;;;5053960;28;20570;-59
2023/04/26 01:43:39;;;;;;;18.13;10.00;;;5.20;98.70;;;;;;5050929;28;20940;-59
2023/04/26 01:46:06;;;;;;;16.60;9.70;;;5.20;98.50;;;;;;5052734;28;20482;-59
2023/04/26 01:48:32;;;;;;;16.73;9.27;;;5.10;98.40;;;;;;5054724;28;20732;-59
2023/04/26 01:50:59;;;;;;;17.50;8.73;;;5.10;98.10;;;;;;5051327;28;20516;-59
2023/04/26 01:53:26;;;;;;;18.03;10.43;;;5.10;98.10;;;;;;5050202;28;20646;-59
2023/04/26 01:55:54;;;;;;;30.90;10.27;;;5.10;98.00;;;;;;5043706;28;20483;-59
2023/04/26 01:58:22;;;;;;;20.63;11.20;;;5.20;98.10;;;;;;5063194;28;20971;-59
2023/04/26 02:00:49;;;;;;;19.23;9.70;;;5.10;98.10;;;;;;5072821;28;20568;-59
2023/04/26 02:03:16;;;;;;;30.37;13.80;;;5.10;98.00;;;;;;5072278;28;20501;-59
2023/04/26 02:05:43;;;;;;;30.00;10.10;;;5.10;97.80;;;;;;5072331;28;20817;-59
2023/04/26 02:08:10;;;;;;;26.20;9.33;;;4.80;97.60;;;;;;5059890;28;20487;-59
2023/04/26 02:10:36;;;;;;;19.37;10.10;;;4.70;97.90;;;;;;5071425;28;20482;-59
2023/04/26 02:13:03;;;;;;;22.83;9.50;;;4.50;98.30;;;;;;5071791;28;20857;-59
2023/04/26 02:15:31;;;;;;;24.77;9.63;;;4.30;98.40;;;;;;5058757;28;20478;-59
2023/04/26 02:17:58;;;;;;;19.73;9.63;;;4.20;98.60;;;;;;5059746;28;20497;-59
2023/04/26 02:20:25;;;;;;;28.70;10.97;;;4.20;98.70;;;;;;5070229;28;20474;-59
2023/04/26 02:22:51;;;;;;;16.90;10.00;;;4.20;98.90;;;;;;5057988;28;20816;-59
2023/04/26 02:25:18;;;;;;;30.27;15.23;;;4.30;99.00;;;;;;5059115;28;20820;-59
2023/04/26 02:27:45;;;;;;;16.40;8.80;;;4.40;98.80;;;;;;5073150;28;20485;-59
2023/04/26 02:30:12;;;;;;;19.60;11.27;;;4.40;98.60;;;;;;5062577;28;20466;-59
2023/04/26 02:32:41;;;;;;;30.30;9.77;;;4.40;98.30;;;;;;5075162;28;20546;-59
2023/04/26 02:35:09;;;;;;;15.97;9.03;;;4.40;98.40;;;;;;5075958;28;20851;-58
2023/04/26 02:37:36;;;;;;;19.10;7.87;;;4.40;98.30;;;;;;5075033;28;20486;-59
2023/04/26 02:40:04;;;;;;;18.37;8.40;;;4.40;98.20;;;;;;5066848;28;20494;-59
2023/04/26 02:42:31;;;;;;;35.33;8.57;;;4.40;98.30;;;;;;5062976;28;21433;-59
2023/04/26 02:44:57;;;;;;;17.20;7.60;;;4.30;98.20;;;;;;5074435;28;20847;-59
2023/04/26 02:47:24;;;;;;;25.60;11.30;;;4.30;98.10;;;;;;5073756;28;20483;-59
2023/04/26 02:49:52;;;;;;;21.33;7.93;;;4.30;98.20;;;;;;5074161;28;20478;-59
2023/04/26 02:52:19;;;;;;;22.43;11.30;;;4.30;98.30;;;;;;5075460;28;20486;-59
2023/04/26 02:54:45;;;;;;;21.03;9.80;;;4.40;98.30;;;;;;5074028;28;20485;-59
2023/04/26 02:57:12;;;;;;;28.77;9.37;;;4.30;98.30;;;;;;5069983;28;20613;-60
2023/04/26 02:59:39;;;;;;;15.73;8.03;;;4.40;98.40;;;;;;5074958;28;20995;-59
2023/04/26 03:02:06;;;;;;;20.77;8.30;;;4.50;98.60;;;;;;5074535;28;20487;-59
2023/04/26 03:04:34;;;;;;;22.47;7.60;;;4.30;98.40;;;;;;5062373;28;20841;-59
2023/04/26 03:07:03;;;;;;;18.70;8.83;;;4.30;98.50;;;;;;5074047;28;20850;-59
2023/04/26 03:09:30;;;;;;;26.33;7.93;;;4.30;98.60;;;;;;5076179;28;20481;-59
2023/04/26 03:11:56;;;;;;;21.90;7.57;;;4.30;98.70;;;;;;5071792;28;20847;-59
2023/04/26 03:14:23;;;;;;;29.53;12.20;;;4.40;98.80;;;;;;5071939;28;20494;-59
2023/04/26 03:16:50;;;;;;;14.80;7.40;;;4.40;98.80;;;;;;5064581;28;20744;-59
2023/04/26 03:19:16;;;;;;;45.33;12.60;;;4.40;98.40;;;;;;5072777;28;20990;-59
2023/04/26 03:21:43;;;;;;;24.30;10.33;;;4.40;98.30;;;;;;5075856;28;20882;-59
2023/04/26 03:24:11;;;;;;;29.63;9.73;;;4.40;98.40;;;;;;5061237;28;20479;-59
2023/04/26 03:26:38;;;;;;;20.30;8.33;;;4.40;98.40;;;;;;5062979;28;20514;-59
2023/04/26 03:29:05;;;;;;;26.87;11.10;;;5.20;98.80;;;;;;5088387;28;20486;-59
2023/04/26 03:31:32;;;;;;;27.73;10.17;;;4.50;98.50;;;;;;5072995;28;20490;-59
2023/04/26 03:33:59;;;;;;;16.70;7.73;;;4.50;98.50;;;;;;5075940;28;21021;-59
2023/04/26 03:36:27;;;;;;;23.97;9.90;;;4.40;98.40;;;;;;5075847;28;20486;-59
2023/04/26 03:38:54;;;;;;;22.00;8.87;;;4.40;98.20;;;;;;5071132;28;20465;-59
2023/04/26 03:41:22;;;;;;;32.87;12.53;;;4.20;97.70;;;;;;5076093;28;20502;-59
2023/04/26 03:43:48;;;;;;;34.93;9.57;;;4.10;97.90;;;;;;5075527;28;20809;-59
2023/04/26 03:46:15;;;;;;;38.37;12.37;;;4.00;98.10;;;;;;5074606;28;20835;-59
2023/04/26 03:48:42;;;;;;;26.60;8.30;;;4.00;98.20;;;;;;5075657;28;20856;-59
2023/04/26 03:51:09;;;;;;;20.87;9.70;;;4.00;98.40;;;;;;5072050;28;21001;-59
2023/04/26 03:53:35;;;;;;;43.40;8.67;;;4.00;98.20;;;;;;5076111;28;20489;-59
2023/04/26 03:56:02;;;;;;;32.30;9.00;;;3.80;98.00;;;;;;5073070;28;20880;-59
2023/04/26 03:58:30;;;;;;;43.33;11.20;;;3.60;98.10;;;;;;5073188;28;20476;-59
2023/04/26 04:00:57;;;;;;;27.13;7.77;;;3.60;98.40;;;;;;5047888;28;21095;-59
2023/04/26 04:03:24;;;;;;;43.50;11.50;;;3.40;98.80;;;;;;5069497;28;20850;-59
2023/04/26 04:05:51;;;;;;;28.23;8.30;;;3.30;98.50;;;;;;5073589;28;20481;-59
2023/04/26 04:08:17;;;;;;;70.73;16.60;;;3.30;98.80;;;;;;5074495;28;20569;-59
2023/04/26 04:10:45;;;;;;;43.53;9.90;;;3.10;98.70;;;;;;5073634;28;20489;-59
2023/04/26 04:13:11;;;;;;;52.13;10.57;;;2.90;99.30;;;;;;5068749;28;20506;-59
2023/04/26 04:15:39;;;;;;;43.73;11.97;;;3.10;99.40;;;;;;5065110;28;20486;-59
2023/04/26 04:18:06;;;;;;;58.73;12.83;;;3.00;99.20;;;;;;5066712;28;20502;-59
2023/04/26 04:20:33;;;;;;;70.20;11.80;;;3.00;99.40;;;;;;5075277;28;20478;-59
2023/04/26 04:23:00;;;;;;;37.67;8.87;;;3.00;99.40;;;;;;5076524;28;20482;-60
2023/04/26 04:25:27;;;;;;;38.40;8.60;;;2.90;99.60;;;;;;5070521;28;20922;-59
2023/04/26 04:27:55;;;;;;;49.07;11.60;;;3.00;99.80;;;;;;5070187;28;20487;-60
2023/04/26 04:30:23;;;;;;;63.73;14.03;;;3.10;99.50;;;;;;5077649;28;20489;-59
2023/04/26 04:32:51;;;;;;;44.37;10.50;;;3.10;99.30;;;;;;5078252;28;20850;-60
2023/04/26 04:35:18;;;;;;;56.53;15.07;;;3.00;99.00;;;;;;5064893;28;20498;-59
2023/04/26 04:37:44;;;;;;;46.33;12.00;;;3.00;99.40;;;;;;5078768;28;20490;-59
2023/04/26 04:40:12;;;;;;;29.07;8.77;;;2.90;99.40;;;;;;5078093;28;20482;-59
2023/04/26 04:42:39;;;;;;;37.03;10.30;;;2.90;99.50;;;;;;5072003;28;20887;-59
2023/04/26 04:45:07;;;;;;;33.03;8.77;;;3.00;99.60;;;;;;5071887;28;20527;-59
2023/04/26 04:47:36;;;;;;;43.97;7.00;;;2.90;99.20;;;;;;5071357;28;21470;-59
2023/04/26 04:50:05;;;;;;;15.10;5.83;;;3.00;99.60;;;;;;5084651;28;21048;-60
2023/04/26 04:52:32;;;;;;;29.20;9.10;;;3.00;99.10;;;;;;5047218;28;20474;-59
2023/04/26 04:54:58;;;;;;;25.80;6.07;;;3.10;99.40;;;;;;5056368;28;20579;-59
2023/04/26 04:57:25;;;;;;;25.23;10.70;;;3.20;99.70;;;;;;5056542;28;21029;-59
2023/04/26 04:59:52;;;;;;;23.07;6.43;;;3.30;99.90;;;;;;5072018;28;20485;-59
2023/04/26 05:02:19;;;;;;;35.53;10.10;;;3.30;99.50;;;;;;5065402;28;20483;-59
2023/04/26 05:04:45;;;;;;;26.90;7.50;;;3.30;99.00;;;;;;5077561;28;20486;-59
2023/04/26 05:07:14;;;;;;;36.50;11.17;;;3.20;98.70;;;;;;5060113;28;20999;-59
2023/04/26 05:09:41;;;;;;;26.17;7.60;;;3.30;99.30;;;;;;5068127;28;20604;-60
2023/04/26 05:12:08;;;;;;;14.33;6.20;;;3.40;99.40;;;;;;5074880;28;20483;-60
2023/04/26 05:14:34;;;;;;;13.03;6.07;;;3.50;99.80;;;;;;5075792;28;20502;-59
2023/04/26 05:17:01;;;;;;;15.40;5.63;;;3.70;99.80;;;;;;5068759;28;20489;-60
2023/04/26 05:19:28;;;;;;;13.83;7.50;;;3.80;99.80;;;;;;5078094;28;20485;-59
2023/04/26 05:21:56;;;;;;;21.33;7.73;;;3.90;99.70;;;;;;5076989;28;20881;-60
2023/04/26 05:24:24;;;;;;;34.47;8.23;;;4.00;99.70;;;;;;5073148;28;20483;-60
2023/04/26 05:26:51;;;;;;;24.80;8.73;;;4.10;99.50;;;;;;5079925;28;20482;-60
2023/04/26 05:29:19;;;;;;;26.53;10.10;;;4.20;99.50;;;;;;5074338;28;21321;-59
2023/04/26 05:31:46;;;;;;;27.50;7.30;;;4.30;99.50;;;;;;5069227;28;20485;-60
2023/04/26 05:34:12;;;;;;;24.40;9.97;;;4.30;99.10;;;;;;5075305;28;20470;-59
2023/04/26 05:36:39;;;;;;;16.30;8.63;;;4.40;99.20;;;;;;5076448;28;20486;-59
2023/04/26 05:39:06;;;;;;;25.10;8.00;;;4.40;99.20;;;;;;5076066;28;20498;-59
2023/04/26 05:41:35;;;;;;;15.63;6.83;;;4.50;98.90;;;;;;5076122;28;20532;-60
2023/04/26 05:44:01;;;;;;;12.23;4.67;;;4.50;99.10;;;;;;5082086;28;20489;-59
2023/04/26 05:46:28;;;;;;;24.83;6.90;;;4.60;99.20;;;;;;5064403;28;21096;-59
2023/04/26 05:48:55;;;;;;;22.40;10.17;;;4.60;99.00;;;;;;5058190;28;20481;-59
2023/04/26 05:51:22;;;;;;;46.53;11.10;;;4.80;99.50;;;;;;5089428;28;20477;-59
2023/04/26 05:53:48;;;;;;;31.00;6.50;;;4.80;99.20;;;;;;5075468;28;20471;-60
2023/04/26 05:56:15;;;;;;;33.70;11.70;;;4.80;99.40;;;;;;5068935;28;20478;-59
2023/04/26 05:58:43;;;;;;;17.10;7.00;;;5.10;99.30;;;;;;5075207;28;20987;-60
2023/04/26 06:01:11;;;;;;;19.53;7.57;;;5.40;99.70;;;;;;5071624;28;20483;-59
2023/04/26 06:03:38;;;;;;;11.27;5.90;;;5.50;99.60;;;;;;5051928;28;20498;-60
2023/04/26 06:06:05;;;;;;;16.00;6.80;;;5.70;99.70;;;;;;5061271;28;20566;-60
2023/04/26 06:09:29;;;;;;;16.83;6.30;;;6.00;99.10;;;;;;5068745;28;20474;-60
2023/04/26 06:11:58;;;;;;;20.67;8.43;;;6.20;99.20;;;;;;5061263;28;20482;-60
2023/04/26 06:14:26;;;;;;;25.47;10.10;;;6.30;98.90;;;;;;5046620;28;20481;-60
2023/04/26 06:16:53;;;;;;;15.07;5.93;;;6.30;98.40;;;;;;5060700;28;20986;-60
2023/04/26 06:19:19;;;;;;;32.63;12.10;;;6.40;98.40;;;;;;5073142;28;20795;-60
2023/04/26 06:21:47;;;;;;;21.00;8.60;;;6.60;98.60;;;;;;5069030;28;20486;-60
2023/04/26 06:24:14;;;;;;;15.33;6.00;;;6.70;99.20;;;;;;5070174;28;20860;-60
2023/04/26 06:26:41;;;;;;;11.17;6.93;;;6.90;99.10;;;;;;5069902;28;20474;-60
2023/04/26 06:29:07;;;;;;;12.90;7.50;;;7.10;99.20;;;;;;5074534;28;20474;-60
2023/04/26 06:31:35;;;;;;;17.33;7.20;;;7.30;98.60;;;;;;5067871;28;20950;-60
2023/04/26 06:34:02;;;;;;;12.43;7.70;;;7.40;98.20;;;;;;5063869;28;20694;-60
2023/04/26 06:36:30;;;;;;;12.00;7.73;;;7.40;98.00;;;;;;5048022;28;20553;-60
2023/04/26 06:38:56;;;;;;;17.60;9.20;;;7.60;98.50;;;;;;5042517;28;20474;-59
2023/04/26 06:41:23;;;;;;;16.70;10.87;;;7.80;99.10;;;;;;5075214;28;20475;-60
2023/04/26 06:43:50;;;;;;;13.17;9.23;;;8.10;98.70;;;;;;5064909;28;20483;-60
2023/04/26 06:46:16;;;;;;;22.03;11.07;;;8.40;98.60;;;;;;5064298;28;20478;-60
2023/04/26 06:48:44;;;;;;;10.40;8.50;;;8.80;99.00;;;;;;5058382;28;20486;-60
2023/04/26 06:51:11;;;;;;;12.23;9.17;;;9.20;98.50;;;;;;5074871;28;20478;-60
2023/04/26 06:53:38;;;;;;;12.07;6.73;;;9.40;98.00;;;;;;5057525;28;20474;-60
2023/04/26 06:56:05;;;;;;;8.87;6.93;;;9.60;97.60;;;;;;5071306;28;20497;-60
2023/04/26 06:58:31;;;;;;;11.00;7.97;;;9.60;97.20;;;;;;5074392;28;20474;-60
2023/04/26 07:00:58;;;;;;;13.90;6.97;;;9.90;97.80;;;;;;5068789;28;20470;-60
2023/04/26 07:03:25;;;;;;;11.90;8.33;;;10.10;96.70;;;;;;5063878;28;21036;-60
2023/04/26 07:05:55;;;;;;;7.90;6.13;;;10.20;97.20;;;;;;5070455;28;20482;-60
2023/04/26 07:08:22;;;;;;;30.13;8.50;;;10.60;96.90;;;;;;5050164;28;20994;-60
2023/04/26 07:10:48;;;;;;;7.93;6.20;;;10.80;96.80;;;;;;5073246;28;20509;-60
2023/04/26 07:13:15;;;;;;;16.80;9.70;;;11.10;97.00;;;;;;5068911;28;20813;-60
2023/04/26 07:15:42;;;;;;;7.20;5.10;;;11.30;96.60;;;;;;5069838;28;20474;-60
2023/04/26 07:18:08;;;;;;;10.83;6.40;;;11.50;96.10;;;;;;5073143;28;20490;-60
2023/04/26 07:20:35;;;;;;;10.17;6.00;;;11.60;96.00;;;;;;5074258;28;20500;-60
2023/04/26 07:23:03;;;;;;;12.23;5.90;;;11.70;95.80;;;;;;5054748;28;20494;-60
2023/04/26 07:25:30;;;;;;;10.20;6.03;;;11.90;95.30;;;;;;5049399;28;20491;-61
2023/04/26 07:27:57;;;;;;;10.97;7.40;;;12.00;96.00;;;;;;5059366;28;20518;-60
2023/04/26 07:30:23;;;;;;;19.03;7.93;;;12.00;95.20;;;;;;5052627;28;20483;-61
2023/04/26 07:32:51;;;;;;;15.87;8.50;;;12.00;95.40;;;;;;5072227;28;20485;-60
2023/04/26 07:35:18;;;;;;;17.43;10.87;;;12.10;95.50;;;;;;5066933;28;20482;-60
2023/04/26 07:37:45;;;;;;;18.90;8.97;;;12.20;95.30;;;;;;5063403;28;20482;-60
2023/04/26 07:40:14;;;;;;;18.53;12.20;;;12.20;95.10;;;;;;5070216;28;20557;-60
2023/04/26 07:42:41;;;;;;;19.83;8.70;;;12.30;94.80;;;;;;5056123;28;20485;-60
2023/04/26 07:45:09;;;;;;;21.73;10.57;;;12.20;94.50;;;;;;5050626;28;20819;-60
2023/04/26 07:47:35;;;;;;;13.10;7.80;;;12.10;94.50;;;;;;5053077;28;20487;-61
2023/04/26 07:50:02;;;;;;;13.57;8.40;;;12.10;95.20;;;;;;5053139;28;21149;-61
2023/04/26 07:52:29;;;;;;;13.73;7.13;;;12.30;95.20;;;;;;5073272;28;20592;-60
2023/04/26 07:54:55;;;;;;;17.93;8.83;;;12.50;95.30;;;;;;5056070;28;20928;-60
2023/04/26 07:57:24;;;;;;;17.83;11.90;;;12.70;95.20;;;;;;5066433;28;20500;-61
2023/04/26 07:59:50;;;;;;;10.43;7.03;;;13.10;95.60;;;;;;5083138;28;20683;-61
2023/04/26 08:02:17;;;;;;;10.73;7.03;;;13.40;95.10;;;;;;5078259;28;21178;-61
2023/04/26 08:04:48;;;;;;;14.80;8.97;;;13.80;93.70;;;;;;5059460;28;20485;-61
2023/04/26 08:07:15;;;;;;;25.53;10.07;;;14.10;93.60;;;;;;5080366;28;20548;-61
2023/04/26 08:09:42;;;;;;;12.23;7.67;;;14.30;93.70;;;;;;5080921;28;21915;-61
2023/04/26 08:12:08;;;;;;;11.30;6.93;;;14.60;93.60;;;;;;5065348;28;20494;-61
2023/04/26 08:14:37;;;;;;;11.37;6.73;;;14.70;92.90;;;;;;5069668;28;20486;-61
2023/04/26 08:17:04;;;;;;;14.23;9.03;;;14.90;93.00;;;;;;5077422;28;20482;-61
2023/04/26 08:19:32;;;;;;;14.63;7.23;;;15.10;92.50;;;;;;5078473;28;20854;-61
2023/04/26 08:21:59;;;;;;;11.77;7.07;;;15.20;92.50;;;;;;5075656;28;21216;-61
2023/04/26 08:24:25;;;;;;;8.67;6.00;;;15.30;91.60;;;;;;5074555;28;20470;-60
2023/04/26 08:26:52;;;;;;;13.67;8.33;;;15.60;92.10;;;;;;5065291;28;20484;-62
2023/04/26 08:29:19;;;;;;;10.43;8.60;;;15.80;92.20;;;;;;5079515;28;20492;-60
2023/04/26 08:31:47;;;;;;;13.10;8.33;;;15.90;91.40;;;;;;5089168;28;20885;-61
2023/04/26 08:34:14;;;;;;;11.60;8.57;;;16.10;91.20;;;;;;5064024;28;20895;-60
2023/04/26 08:36:41;;;;;;;13.17;7.80;;;16.20;91.10;;;;;;5064835;28;20487;-60
2023/04/26 08:39:08;;;;;;;9.50;8.47;;;16.10;90.20;;;;;;5076895;28;21098;-60
2023/04/26 08:41:37;;;;;;;10.73;6.27;;;16.20;91.40;;;;;;5068544;28;20874;-61
2023/04/26 08:44:05;;;;;;;10.63;7.20;;;16.00;90.90;;;;;;5050614;28;20916;-61
2023/04/26 08:46:37;;;;;;;13.17;8.40;;;16.00;90.30;;;;;;5067825;28;21425;-61
2023/04/26 08:49:19;;;;;;;12.00;6.77;;;16.10;90.40;;;;;;5068330;28;20465;-62
2023/04/26 08:51:47;;;;;;;9.50;6.93;;;15.70;85.70;;;;;;5089819;28;20468;-62
2023/04/26 08:54:16;;;;;;;10.70;8.63;;;15.60;90.60;;;;;;5091706;28;20792;-61
2023/04/26 08:56:43;;;;;;;13.53;8.17;;;15.50;90.00;;;;;;5076636;28;21020;-60
2023/04/26 08:59:10;;;;;;;13.53;8.27;;;15.50;89.20;;;;;;5075669;28;20611;-60
2023/04/26 09:01:40;;;;;;;21.80;8.23;;;15.40;90.50;;;;;;5066639;28;20479;-61
2023/04/26 09:04:09;;;;;;;14.17;9.00;;;15.40;89.80;;;;;;5089197;28;20601;-60
2023/04/26 09:06:36;;;;;;;10.97;6.97;;;15.40;89.50;;;;;;5060553;28;21028;-61
2023/04/26 09:09:06;;;;;;;15.50;6.10;;;15.30;88.40;;;;;;5086542;28;20473;-60
2023/04/26 09:11:51;;;;;;;9.67;6.60;;;15.20;87.80;;;;;;5097672;28;20505;-61
2023/04/26 09:14:17;;;;;;;25.43;11.63;;;15.20;90.60;;;;;;5074829;28;20488;-62
2023/04/26 09:16:44;;;;;;;9.73;7.13;;;15.10;89.70;;;;;;5073368;28;20482;-61
2023/04/26 09:19:12;;;;;;;13.37;8.40;;;15.00;90.30;;;;;;5076328;28;20562;-61
2023/04/26 09:21:43;;;;;;;24.07;8.27;;;15.10;90.30;;;;;;5047210;28;20975;-61
2023/04/26 09:24:09;;;;;;;8.93;6.97;;;15.20;89.80;;;;;;5082753;28;20480;-61
2023/04/26 09:26:36;;;;;;;11.47;6.60;;;15.30;89.30;;;;;;5066875;28;21037;-61
2023/04/26 09:29:14;;;;;;;20.77;7.20;;;15.00;84.80;;;;;;5076261;28;20487;-62
2023/04/26 09:31:43;;;;;;;12.60;7.97;;;15.00;87.30;;;;;;5046075;28;20473;-61
2023/04/26 09:34:12;;;;;;;35.93;7.57;;;14.90;87.10;;;;;;5089533;28;20466;-62
2023/04/26 09:36:50;;;;;;;11.63;7.40;;;15.00;88.60;;;;;;5078562;28;20785;-62
2023/04/26 09:39:31;;;;;;;18.63;11.30;;;14.90;85.60;;;;;;5066836;28;20931;-61
2023/04/26 09:41:58;;;;;;;11.00;6.90;;;14.70;85.20;;;;;;5074255;28;20475;-61
2023/04/26 09:44:25;;;;;;;10.70;7.67;;;14.40;81.80;;;;;;5073379;28;21021;-61
2023/04/26 09:47:03;;;;;;;18.23;7.37;;;14.30;85.80;;;;;;5065825;28;20474;-62
2023/04/26 09:49:32;;;;;;;7.43;6.43;;;14.40;84.70;;;;;;5075857;28;21044;-61
2023/04/26 09:52:08;;;;;;;9.37;6.77;;;14.70;88.40;;;;;;5075433;28;20482;-61
2023/04/26 09:54:43;;;;;;;12.60;6.73;;;14.80;84.30;;;;;;5073757;28;20493;-61
2023/04/26 09:57:10;;;;;;;17.07;7.40;;;14.90;83.80;;;;;;5073874;28;20478;-61
2023/04/26 09:59:44;;;;;;;8.40;6.30;;;15.00;84.70;;;;;;5071512;28;20485;-61
2023/04/26 10:02:16;;;;;;;13.10;7.30;;;15.10;82.70;;;;;;5073334;28;20469;-60
2023/04/26 10:04:46;;;;;;;12.50;6.77;;;15.40;85.90;;;;;;5076305;28;20481;-61
2023/04/26 10:07:14;;;;;;;13.50;7.80;;;15.50;81.00;;;;;;5076169;28;20579;-61
2023/04/26 10:09:42;;;;;;;8.07;6.00;;;15.80;84.50;;;;;;5074487;28;20711;-61
2023/04/26 10:12:10;;;;;;;12.47;7.13;;;16.10;83.20;;;;;;5074758;28;20846;-61
2023/04/26 10:14:37;;;;;;;8.87;6.20;;;16.20;76.90;;;;;;5084111;28;20485;-61
2023/04/26 10:17:04;;;;;;;11.87;5.97;;;16.40;79.10;;;;;;5079265;28;20851;-61
2023/04/26 10:19:32;;;;;;;10.40;5.93;;;16.40;78.20;;;;;;5063151;28;20489;-61
2023/04/26 10:22:05;;;;;;;11.23;5.33;;;16.30;77.60;;;;;;5069337;28;20695;-61
2023/04/26 10:24:33;;;;;;;10.43;6.33;;;16.00;75.20;;;;;;5083056;28;20484;-61
2023/04/26 10:27:03;;;;;;;9.67;5.70;;;15.70;75.20;;;;;;5089542;28;21025;-61
2023/04/26 10:30:03;;;;;;;13.73;7.50;;;15.70;79.00;;;;;;5072457;28;20504;-61
2023/04/26 10:32:31;;;;;;;10.83;5.80;;;15.70;78.00;;;;;;5058549;28;21073;-61
2023/04/26 10:35:11;;;;;;;10.70;6.40;;;15.80;79.80;;;;;;5092281;28;20517;-62
2023/04/26 10:38:08;;;;;;;10.80;6.70;;;15.80;80.40;;;;;;5091797;28;20534;-62
2023/04/26 10:40:38;;;;;;;9.20;5.87;;;15.90;79.20;;;;;;5065003;28;20511;-62
2023/04/26 10:43:30;;;;;;;11.53;6.60;;;16.00;79.80;;;;;;5074039;28;20562;-62
2023/04/26 10:45:57;;;;;;;9.63;5.57;;;15.90;79.50;;;;;;5065910;28;21146;-62
2023/04/26 10:48:30;;;;;;;9.50;7.23;;;16.00;78.70;;;;;;5086506;28;20481;-62
2023/04/26 10:51:11;;;;;;;9.23;5.10;;;16.10;80.30;;;;;;5049552;28;20716;-62
2023/04/26 10:54:01;;;;;;;11.43;6.40;;;16.00;80.10;;;;;;5066620;28;20510;-62
2023/04/26 10:56:52;;;;;;;10.93;6.43;;;15.80;76.00;;;;;;5052584;28;20569;-62
2023/04/26 10:59:21;;;;;;;13.63;7.63;;;15.90;80.20;;;;;;5061092;28;20560;-62
2023/04/26 11:01:47;;;;;;;11.50;6.93;;;16.00;80.10;;;;;;5058351;28;20553;-62
2023/04/26 11:04:15;;;;;;;11.00;7.70;;;16.20;81.20;;;;;;5084826;28;20478;-62
2023/04/26 11:06:49;;;;;;;14.37;5.87;;;16.40;79.80;;;;;;5078192;28;20527;-62
2023/04/26 11:09:36;;;;;;;13.37;8.93;;;16.40;75.10;;;;;;5073395;28;20598;-62
2023/04/26 11:12:07;;;;;;;7.77;5.30;;;16.30;74.30;;;;;;5041800;28;20487;-62
2023/04/26 11:14:34;;;;;;;14.73;6.10;;;16.30;77.20;;;;;;5084243;28;20801;-61
2023/04/26 11:17:04;;;;;;;23.07;5.60;;;16.50;78.60;;;;;;5070557;28;20903;-62
2023/04/26 11:19:31;;;;;;;8.30;5.43;;;16.60;78.00;;;;;;5073888;28;21017;-62
2023/04/26 11:21:59;;;;;;;10.43;5.60;;;16.70;78.40;;;;;;5044248;28;20486;-62
2023/04/26 11:24:26;;;;;;;18.40;7.20;;;16.70;78.60;;;;;;5059546;28;20495;-63
2023/04/26 11:26:54;;;;;;;12.00;6.73;;;16.60;75.10;;;;;;5071572;28;20971;-62
2023/04/26 11:29:21;;;;;;;10.60;7.70;;;16.20;70.80;;;;;;5079028;28;20490;-62
2023/04/26 11:31:53;;;;;;;14.13;6.40;;;16.30;76.00;;;;;;5082561;28;20549;-62
2023/04/26 11:34:23;;;;;;;12.20;9.00;;;16.60;81.10;;;;;;5065371;28;20490;-62
2023/04/26 11:36:52;;;;;;;7.93;4.93;;;17.00;81.10;;;;;;5065453;28;20489;-61
2023/04/26 11:39:21;;;;;;;10.57;8.60;;;17.30;77.40;;;;;;5071392;28;20877;-62
2023/04/26 11:41:48;;;;;;;9.77;5.50;;;17.40;74.10;;;;;;5051878;28;20876;-62
2023/04/26 11:44:19;;;;;;;11.17;7.67;;;17.70;77.60;;;;;;5082952;28;20482;-61
2023/04/26 11:46:48;;;;;;;5.90;5.30;;;17.10;70.00;;;;;;5050237;28;21044;-62
2023/04/26 11:49:15;;;;;;;13.80;7.90;;;17.30;75.30;;;;;;5094547;28;20477;-62
2023/04/26 11:51:42;;;;;;;7.87;5.03;;;16.90;72.00;;;;;;5081968;28;20482;-63
2023/04/26 11:54:09;;;;;;;8.80;5.70;;;16.90;75.40;;;;;;5082793;28;20477;-61
2023/04/26 11:56:36;;;;;;;10.20;5.70;;;16.90;75.20;;;;;;5065150;28;20489;-62
2023/04/26 11:59:03;;;;;;;12.63;8.13;;;17.00;74.20;;;;;;5089277;28;21201;-61
2023/04/26 12:01:31;;;;;;;9.70;5.80;;;17.00;73.80;;;;;;5088245;28;21160;-62
2023/04/26 12:03:59;;;;;;;6.87;5.00;;;17.20;75.50;;;;;;5083704;28;20773;-62
2023/04/26 12:06:31;;;;;;;13.60;6.93;;;17.40;76.80;;;;;;5067701;28;20491;-61
2023/04/26 12:09:01;;;;;;;12.70;6.83;;;17.20;71.20;;;;;;5067202;28;20820;-62
2023/04/26 12:11:28;;;;;;;9.60;6.80;;;16.90;69.30;;;;;;5043342;28;20826;-62
2023/04/26 12:13:58;;;;;;;15.77;6.37;;;16.20;72.20;;;;;;5066043;28;20486;-62
2023/04/26 12:16:24;;;;;;;16.13;7.73;;;15.80;70.30;;;;;;5056517;28;20477;-62
2023/04/26 12:18:53;;;;;;;11.37;6.80;;;15.90;76.60;;;;;;5069208;28;20531;-61
2023/04/26 12:21:19;;;;;;;17.23;11.07;;;16.20;73.40;;;;;;5064389;28;20477;-61
2023/04/26 12:23:47;;;;;;;9.70;7.20;;;15.80;71.90;;;;;;5075960;28;20490;-61
2023/04/26 12:26:15;;;;;;;10.13;6.20;;;15.80;71.10;;;;;;5073332;28;20505;-61
2023/04/26 12:28:42;;;;;;;10.57;6.70;;;15.80;73.30;;;;;;5077952;28;20482;-62
2023/04/26 12:31:08;;;;;;;10.70;7.17;;;15.60;74.30;;;;;;5076356;28;20804;-61
2023/04/26 12:33:36;;;;;;;15.67;7.00;;;15.10;72.00;;;;;;5089755;28;21080;-61
2023/04/26 12:36:08;;;;;;;7.00;5.10;;;14.90;73.30;;;;;;5055864;28;20467;-61
2023/04/26 12:38:36;;;;;;;15.83;8.57;;;14.60;73.80;;;;;;5059717;28;20802;-61
2023/04/26 12:41:02;;;;;;;11.17;6.20;;;14.40;70.70;;;;;;5070453;28;20829;-61
2023/04/26 12:43:29;;;;;;;20.93;9.20;;;14.60;77.10;;;;;;5076703;28;20786;-61
2023/04/26 12:45:56;;;;;;;16.83;7.27;;;14.70;72.10;;;;;;5075585;28;20498;-61